Hauptseite
METAR-TAF:

METAR-TAF

Flughäfen :

Flugplatz Ansbach-Katterbach

Ansbach, Deutschland

Breite: 49-19N, Länge: 010-38E, Höhe: 467 m

Beobachtung

Neuester Wetterbericht von vor 1 Stunde und 12 Minuten, um 17:56 UTC
Wind 4 kt aus Ost/Südost
Temperatur 21°C
Luftfeuchtigkeit 46%
Luftdruck 1020 hPa
Sichtweite 10 km oder mehr
Himmel klar

METAR: ETEB 051756Z AUTO 12004KT 9999 CLR 21/09 A3011 RMK AO2 SLP200 T02120085 10231 20212 53001 $

Zeit: 21:08 (19:08 UTC)

Prognose

Neuester Wetterbericht von vor 2 Stunden und 8 Minuten, um 17:00 UTC
Gültige Prognose vom 05 um 17 UTC bis 06 um 23 UTC
Wind 6 kt aus Ost
Sichtweite: 0609 m
Leicht bewölkt in der Höhe von 6000 ft

TAF: ETEB 051700Z 0517/0623 09006KT 9999 FEW060 QNH3007INS TX23/0517Z TN12/0603Z LAST NO AMDS AFT 0522 NEXT 0609

Wetterbeobachtungen und Prognosen von mehr als 4000 Flughäfen (METAR und TAF Bericht).

Die verfügbaren Stationen werden durch gelbe und rote Markierungen auf der Karte dargestellt.

Führen Sie die Maus auf sie, um den Namen der Station zu sehen.

Darauf klicken, um die Beobachtung von Wetterbeobachtungen und Prognosen zu sehen.

Um die Karte zu ändern : klicken Sie auf den grünen Tasten mit einem schwarzen Kreuz Zum Vergrößern, auf den grünen Button mit einem Gedankenstrich zu verkleinern, oder auf die grünen Pfeile für benachbarte Karten.


METAR-TAF: